createdAt,value
2022-12-31T00:04:55.370Z,100.00
2022-12-31T00:11:01.857Z,100.00
2022-12-31T00:17:03.851Z,100.00
2022-12-31T00:23:05.772Z,100.00
2022-12-31T00:29:07.714Z,100.00
2022-12-31T00:35:09.735Z,100.00
2022-12-31T00:41:12.680Z,100.00
2022-12-31T00:47:14.614Z,100.00
2022-12-31T00:53:17.230Z,100.00
2022-12-31T00:59:19.143Z,100.00
2022-12-31T01:05:21.051Z,100.00
2022-12-31T01:11:24.591Z,100.00
2022-12-31T01:17:35.579Z,100.00
2022-12-31T01:23:37.972Z,100.00
2022-12-31T01:29:39.917Z,100.00
2022-12-31T01:35:41.843Z,100.00
2022-12-31T01:41:46.867Z,100.00
2022-12-31T01:47:57.801Z,100.00
2022-12-31T01:54:02.790Z,100.00
2022-12-31T02:00:06.466Z,100.00
2022-12-31T02:06:31.576Z,100.00
2022-12-31T02:12:33.515Z,100.00
2022-12-31T02:19:04.385Z,99.62
2022-12-31T02:25:20.268Z,100.00
2022-12-31T02:31:35.767Z,100.00
2022-12-31T02:37:41.289Z,100.00
2022-12-31T02:43:52.280Z,100.00
2022-12-31T02:50:29.844Z,100.00
2022-12-31T02:57:02.111Z,100.00
2022-12-31T03:03:06.389Z,100.00
2022-12-31T03:09:14.371Z,100.00
2022-12-31T03:15:30.943Z,100.00
2022-12-31T03:22:10.082Z,100.00
2022-12-31T03:28:17.646Z,100.00
2022-12-31T03:34:19.586Z,100.00
2022-12-31T03:40:24.110Z,100.00
2022-12-31T03:46:26.005Z,100.00
2022-12-31T03:52:27.954Z,100.00
2022-12-31T03:58:29.902Z,100.00
2022-12-31T04:04:31.991Z,100.00
2022-12-31T04:10:33.879Z,100.00
2022-12-31T04:16:35.857Z,99.68
2022-12-31T04:22:37.971Z,100.00
2022-12-31T04:28:39.882Z,99.91
2022-12-31T04:34:41.769Z,98.49
2022-12-31T04:41:04.334Z,97.64
2022-12-31T04:47:06.229Z,97.86
2022-12-31T04:53:08.119Z,96.56
2022-12-31T04:59:10.644Z,97.37
2022-12-31T05:05:12.559Z,96.87
2022-12-31T05:11:15.300Z,97.24
2022-12-31T05:17:17.216Z,97.17
2022-12-31T05:23:22.823Z,97.29
2022-12-31T05:29:24.702Z,96.88
2022-12-31T05:35:26.780Z,96.09
2022-12-31T05:41:28.651Z,96.73
2022-12-31T05:47:30.587Z,96.21
2022-12-31T05:53:34.333Z,96.47
2022-12-31T05:59:36.383Z,95.42
2022-12-31T06:05:42.797Z,95.83
2022-12-31T06:11:45.806Z,96.47
2022-12-31T06:17:47.681Z,97.34
2022-12-31T06:23:49.575Z,97.62
2022-12-31T06:29:51.456Z,97.52
2022-12-31T06:35:58.621Z,97.10
2022-12-31T06:42:00.525Z,97.55
2022-12-31T06:48:02.683Z,96.84
2022-12-31T06:54:07.660Z,96.06
2022-12-31T07:00:11.677Z,96.34
2022-12-31T07:06:36.351Z,96.97
2022-12-31T07:13:23.817Z,95.76
2022-12-31T07:19:39.546Z,95.76
2022-12-31T07:26:10.282Z,96.38
2022-12-31T07:32:52.593Z,95.29
2022-12-31T07:39:04.614Z,95.60
2022-12-31T07:45:41.118Z,94.49
2022-12-31T07:51:43.411Z,96.05
2022-12-31T07:58:24.946Z,95.46
2022-12-31T08:04:47.679Z,98.60
2022-12-31T08:11:33.297Z,99.40
2022-12-31T08:17:35.390Z,100.00
2022-12-31T08:24:01.560Z,99.59
2022-12-31T08:30:12.184Z,98.88
2022-12-31T08:36:25.936Z,97.53
2022-12-31T08:43:05.985Z,95.54
2022-12-31T08:49:09.915Z,95.04
2022-12-31T08:55:19.477Z,93.77
2022-12-31T09:01:26.566Z,94.71
2022-12-31T09:07:46.604Z,93.05
2022-12-31T09:14:10.301Z,93.12
2022-12-31T09:20:44.886Z,92.74
2022-12-31T09:27:43.577Z,93.19
2022-12-31T09:34:19.299Z,90.96
2022-12-31T09:40:52.259Z,91.62
2022-12-31T09:47:52.059Z,91.93
2022-12-31T09:54:05.598Z,92.13
2022-12-31T10:00:34.232Z,89.73
2022-12-31T10:07:09.366Z,88.63
2022-12-31T10:13:44.109Z,88.47
2022-12-31T10:20:09.232Z,89.22
2022-12-31T10:26:42.863Z,88.24
2022-12-31T10:33:06.667Z,87.68
2022-12-31T10:39:32.460Z,87.05
2022-12-31T10:45:58.415Z,86.13
2022-12-31T10:52:42.616Z,86.64
2022-12-31T10:59:49.173Z,89.30
2022-12-31T11:06:46.784Z,88.39
2022-12-31T11:13:27.397Z,88.46
2022-12-31T11:19:51.607Z,88.08
2022-12-31T11:26:32.009Z,88.99
2022-12-31T11:33:06.634Z,88.20
2022-12-31T11:46:39.264Z,86.20
2022-12-31T11:53:06.098Z,85.90
2022-12-31T11:59:18.531Z,85.94
2022-12-31T12:05:25.368Z,84.49
2022-12-31T12:11:34.260Z,83.95
2022-12-31T12:17:36.712Z,84.29
2022-12-31T12:23:39.330Z,82.16
2022-12-31T12:29:41.576Z,82.00
2022-12-31T12:35:44.118Z,79.69
2022-12-31T12:41:46.009Z,78.28
2022-12-31T12:47:54.699Z,77.71
2022-12-31T12:54:58.997Z,78.03
2022-12-31T13:01:31.328Z,78.32
2022-12-31T13:08:24.317Z,76.32
2022-12-31T13:14:58.997Z,76.83
2022-12-31T13:21:39.138Z,76.29
2022-12-31T13:27:45.672Z,76.57
2022-12-31T13:34:18.469Z,76.38
2022-12-31T13:40:44.838Z,77.77
2022-12-31T13:47:02.004Z,78.51
2022-12-31T13:53:30.839Z,78.27
2022-12-31T13:59:38.998Z,78.40
2022-12-31T14:06:03.091Z,77.31
2022-12-31T14:12:53.115Z,76.71
2022-12-31T14:19:41.705Z,76.09
2022-12-31T14:25:53.597Z,76.10
2022-12-31T14:32:26.729Z,75.15
2022-12-31T14:38:59.414Z,75.91
2022-12-31T14:45:29.995Z,76.09
2022-12-31T14:51:35.464Z,75.84
2022-12-31T14:58:25.337Z,75.96
2022-12-31T15:04:15.096Z,75.93
2022-12-31T15:10:44.841Z,76.60
2022-12-31T15:17:27.794Z,77.42
2022-12-31T15:23:39.095Z,77.21
2022-12-31T15:29:45.531Z,76.92
2022-12-31T15:35:54.003Z,78.35
2022-12-31T15:48:43.301Z,78.32
2022-12-31T15:54:50.522Z,78.80
2022-12-31T16:01:23.574Z,79.71
2022-12-31T16:07:28.026Z,79.79
2022-12-31T16:13:30.619Z,81.00
2022-12-31T16:19:44.652Z,81.30
2022-12-31T16:25:46.907Z,82.02
2022-12-31T16:31:52.692Z,82.02
2022-12-31T16:38:18.938Z,81.91
2022-12-31T16:44:27.208Z,82.94
2022-12-31T16:50:29.987Z,82.91
2022-12-31T16:56:39.076Z,82.70
2022-12-31T17:02:45.766Z,82.96
2022-12-31T17:08:57.935Z,83.71
2022-12-31T17:15:03.783Z,82.36
2022-12-31T17:21:10.404Z,82.61
2022-12-31T17:27:12.390Z,81.79
2022-12-31T17:33:20.240Z,82.39
2022-12-31T17:39:23.662Z,81.45
2022-12-31T17:45:25.591Z,82.13
2022-12-31T17:51:27.696Z,80.73
2022-12-31T17:57:29.657Z,80.86
2022-12-31T18:03:31.546Z,81.59
2022-12-31T18:09:33.443Z,80.42
2022-12-31T18:15:35.321Z,79.88
2022-12-31T18:21:37.244Z,79.72
2022-12-31T18:27:41.915Z,78.60
2022-12-31T18:33:44.102Z,79.06
2022-12-31T18:39:49.320Z,78.62
2022-12-31T18:45:52.330Z,78.45
2022-12-31T18:51:58.007Z,78.97
2022-12-31T18:57:59.940Z,78.34
2022-12-31T19:04:19.933Z,77.37
2022-12-31T19:10:26.496Z,77.61
2022-12-31T19:16:28.631Z,77.74
2022-12-31T19:22:30.557Z,78.02
2022-12-31T19:28:32.413Z,77.46
2022-12-31T19:34:36.227Z,78.06
2022-12-31T19:40:40.057Z,77.37
2022-12-31T19:46:42.098Z,76.89
2022-12-31T19:52:47.076Z,75.96
2022-12-31T19:58:48.953Z,76.23
2022-12-31T20:04:50.828Z,77.31
2022-12-31T20:10:52.719Z,76.98
2022-12-31T20:16:56.000Z,75.76
2022-12-31T20:22:58.498Z,76.99
2022-12-31T20:29:00.382Z,77.57
2022-12-31T20:35:03.908Z,76.32
2022-12-31T20:41:11.812Z,76.93
2022-12-31T20:47:16.404Z,77.14
2022-12-31T20:53:18.276Z,77.05
2022-12-31T20:59:20.188Z,76.43
2022-12-31T21:05:22.293Z,75.63
2022-12-31T21:11:43.491Z,74.28
2022-12-31T21:17:45.887Z,73.36
2022-12-31T21:23:47.877Z,73.96
2022-12-31T21:30:17.203Z,72.01
2022-12-31T21:36:17.482Z,72.47
2022-12-31T21:42:19.366Z,71.32
2022-12-31T21:48:24.695Z,70.82
2022-12-31T21:54:44.929Z,71.11
2022-12-31T22:01:07.633Z,70.06
2022-12-31T22:07:09.613Z,69.80
2022-12-31T22:13:12.784Z,69.26
2022-12-31T22:19:14.737Z,69.34
2022-12-31T22:25:16.875Z,68.49
2022-12-31T22:31:26.429Z,68.09
2022-12-31T22:37:55.719Z,68.06
2022-12-31T22:44:02.272Z,66.70
2022-12-31T22:50:06.123Z,66.08
2022-12-31T22:56:09.743Z,66.11
2022-12-31T23:02:11.629Z,65.57
2022-12-31T23:08:22.385Z,66.71
2022-12-31T23:14:44.639Z,65.58
2022-12-31T23:21:05.593Z,66.00
2022-12-31T23:27:08.976Z,63.96
2022-12-31T23:33:18.983Z,64.09
2022-12-31T23:39:21.028Z,64.61
2022-12-31T23:45:24.986Z,64.53
2022-12-31T23:51:33.256Z,64.88
2022-12-31T23:57:35.146Z,64.77
